sensor_id;sensor_type;location;lat;lon;timestamp;P1;durP1;ratioP1;P2;durP2;ratioP2
47329;SDS011;33060;50.178;7.570;2023-02-26T00:00:32;4.10;;;1.90;;
47329;SDS011;33060;50.178;7.570;2023-02-26T00:03:00;4.17;;;2.00;;
47329;SDS011;33060;50.178;7.570;2023-02-26T00:05:27;5.77;;;2.20;;
47329;SDS011;33060;50.178;7.570;2023-02-26T00:07:53;4.43;;;2.00;;
47329;SDS011;33060;50.178;7.570;2023-02-26T00:10:20;5.47;;;1.90;;
47329;SDS011;33060;50.178;7.570;2023-02-26T00:12:47;3.47;;;1.90;;
47329;SDS011;33060;50.178;7.570;2023-02-26T00:15:14;3.90;;;1.90;;
47329;SDS011;33060;50.178;7.570;2023-02-26T00:20:24;6.47;;;2.23;;
47329;SDS011;33060;50.178;7.570;2023-02-26T00:22:51;6.67;;;2.53;;
47329;SDS011;33060;50.178;7.570;2023-02-26T00:25:18;7.63;;;2.60;;
47329;SDS011;33060;50.178;7.570;2023-02-26T00:27:45;5.80;;;2.37;;
47329;SDS011;33060;50.178;7.570;2023-02-26T00:30:12;4.80;;;2.17;;
47329;SDS011;33060;50.178;7.570;2023-02-26T00:32:39;5.03;;;2.40;;
47329;SDS011;33060;50.178;7.570;2023-02-26T00:35:07;5.30;;;2.20;;
47329;SDS011;33060;50.178;7.570;2023-02-26T00:40:37;6.27;;;2.43;;
47329;SDS011;33060;50.178;7.570;2023-02-26T00:43:19;3.60;;;2.10;;
47329;SDS011;33060;50.178;7.570;2023-02-26T00:48:49;5.83;;;2.17;;
47329;SDS011;33060;50.178;7.570;2023-02-26T00:51:30;5.30;;;2.23;;
47329;SDS011;33060;50.178;7.570;2023-02-26T00:56:58;4.43;;;2.10;;
47329;SDS011;33060;50.178;7.570;2023-02-26T00:59:25;4.60;;;1.87;;
47329;SDS011;33060;50.178;7.570;2023-02-26T01:01:52;5.57;;;2.00;;
47329;SDS011;33060;50.178;7.570;2023-02-26T01:04:20;8.70;;;2.37;;
47329;SDS011;33060;50.178;7.570;2023-02-26T01:06:49;4.90;;;1.87;;
47329;SDS011;33060;50.178;7.570;2023-02-26T01:11:48;5.13;;;2.00;;
47329;SDS011;33060;50.178;7.570;2023-02-26T01:14:15;3.43;;;1.90;;
47329;SDS011;33060;50.178;7.570;2023-02-26T01:25:13;5.47;;;1.70;;
47329;SDS011;33060;50.178;7.570;2023-02-26T01:27:43;3.97;;;1.83;;
47329;SDS011;33060;50.178;7.570;2023-02-26T01:30:10;2.40;;;1.57;;
47329;SDS011;33060;50.178;7.570;2023-02-26T01:32:45;3.13;;;1.47;;
47329;SDS011;33060;50.178;7.570;2023-02-26T01:35:23;4.07;;;1.60;;
47329;SDS011;33060;50.178;7.570;2023-02-26T01:43:27;4.27;;;1.90;;
47329;SDS011;33060;50.178;7.570;2023-02-26T01:46:20;4.00;;;1.90;;
47329;SDS011;33060;50.178;7.570;2023-02-26T01:48:52;5.07;;;2.27;;
47329;SDS011;33060;50.178;7.570;2023-02-26T01:51:40;2.90;;;1.77;;
47329;SDS011;33060;50.178;7.570;2023-02-26T01:54:13;4.90;;;1.90;;
47329;SDS011;33060;50.178;7.570;2023-02-26T01:56:42;3.43;;;1.70;;
47329;SDS011;33060;50.178;7.570;2023-02-26T01:59:12;4.80;;;1.50;;
47329;SDS011;33060;50.178;7.570;2023-02-26T02:01:41;5.70;;;1.87;;
47329;SDS011;33060;50.178;7.570;2023-02-26T02:04:10;3.17;;;1.77;;
47329;SDS011;33060;50.178;7.570;2023-02-26T02:06:39;4.67;;;2.13;;
47329;SDS011;33060;50.178;7.570;2023-02-26T02:09:07;3.67;;;3.23;;
47329;SDS011;33060;50.178;7.570;2023-02-26T02:11:37;5.63;;;2.77;;
47329;SDS011;33060;50.178;7.570;2023-02-26T02:19:43;4.60;;;2.10;;
47329;SDS011;33060;50.178;7.570;2023-02-26T02:28:09;3.43;;;1.47;;
47329;SDS011;33060;50.178;7.570;2023-02-26T02:33:29;4.07;;;2.53;;
47329;SDS011;33060;50.178;7.570;2023-02-26T02:36:06;4.67;;;2.47;;
47329;SDS011;33060;50.178;7.570;2023-02-26T02:38:51;4.90;;;2.60;;
47329;SDS011;33060;50.178;7.570;2023-02-26T02:41:29;4.17;;;2.43;;
47329;SDS011;33060;50.178;7.570;2023-02-26T02:44:01;4.13;;;2.60;;
47329;SDS011;33060;50.178;7.570;2023-02-26T02:46:31;3.67;;;2.10;;
47329;SDS011;33060;50.178;7.570;2023-02-26T02:49:03;7.07;;;2.20;;
47329;SDS011;33060;50.178;7.570;2023-02-26T02:51:36;3.07;;;2.00;;
47329;SDS011;33060;50.178;7.570;2023-02-26T02:54:09;2.70;;;2.00;;
47329;SDS011;33060;50.178;7.570;2023-02-26T02:59:15;5.20;;;2.20;;
47329;SDS011;33060;50.178;7.570;2023-02-26T03:01:47;3.43;;;2.23;;
47329;SDS011;33060;50.178;7.570;2023-02-26T03:04:19;5.53;;;2.50;;
47329;SDS011;33060;50.178;7.570;2023-02-26T03:06:45;3.70;;;2.80;;
47329;SDS011;33060;50.178;7.570;2023-02-26T03:09:17;5.37;;;2.60;;
47329;SDS011;33060;50.178;7.570;2023-02-26T03:11:44;4.10;;;2.10;;
47329;SDS011;33060;50.178;7.570;2023-02-26T03:14:11;3.37;;;2.50;;
47329;SDS011;33060;50.178;7.570;2023-02-26T03:19:44;5.10;;;2.30;;
47329;SDS011;33060;50.178;7.570;2023-02-26T03:22:50;4.10;;;2.47;;
47329;SDS011;33060;50.178;7.570;2023-02-26T03:31:08;6.30;;;2.90;;
47329;SDS011;33060;50.178;7.570;2023-02-26T03:39:26;4.83;;;3.03;;
47329;SDS011;33060;50.178;7.570;2023-02-26T03:42:31;4.13;;;2.60;;
47329;SDS011;33060;50.178;7.570;2023-02-26T03:45:03;4.50;;;2.80;;
47329;SDS011;33060;50.178;7.570;2023-02-26T03:47:34;4.50;;;2.37;;
47329;SDS011;33060;50.178;7.570;2023-02-26T03:50:07;3.70;;;2.87;;
47329;SDS011;33060;50.178;7.570;2023-02-26T03:52:46;3.73;;;2.47;;
47329;SDS011;33060;50.178;7.570;2023-02-26T03:55:40;5.53;;;2.70;;
47329;SDS011;33060;50.178;7.570;2023-02-26T03:58:32;4.13;;;3.00;;
47329;SDS011;33060;50.178;7.570;2023-02-26T04:01:28;3.97;;;2.30;;
47329;SDS011;33060;50.178;7.570;2023-02-26T04:04:02;4.87;;;2.70;;
47329;SDS011;33060;50.178;7.570;2023-02-26T04:06:33;5.70;;;2.93;;
47329;SDS011;33060;50.178;7.570;2023-02-26T04:09:00;3.93;;;2.67;;
47329;SDS011;33060;50.178;7.570;2023-02-26T04:11:30;5.33;;;2.80;;
47329;SDS011;33060;50.178;7.570;2023-02-26T04:13:58;6.37;;;3.00;;
47329;SDS011;33060;50.178;7.570;2023-02-26T04:16:25;4.03;;;2.73;;
47329;SDS011;33060;50.178;7.570;2023-02-26T04:18:52;4.23;;;2.90;;
47329;SDS011;33060;50.178;7.570;2023-02-26T04:21:20;5.77;;;3.00;;
47329;SDS011;33060;50.178;7.570;2023-02-26T04:23:47;3.60;;;2.87;;
47329;SDS011;33060;50.178;7.570;2023-02-26T04:26:14;3.73;;;2.77;;
47329;SDS011;33060;50.178;7.570;2023-02-26T04:28:42;4.70;;;2.67;;
47329;SDS011;33060;50.178;7.570;2023-02-26T04:31:10;4.43;;;2.80;;
47329;SDS011;33060;50.178;7.570;2023-02-26T04:33:37;5.07;;;2.90;;
47329;SDS011;33060;50.178;7.570;2023-02-26T04:36:04;5.10;;;2.40;;
47329;SDS011;33060;50.178;7.570;2023-02-26T04:38:31;7.07;;;2.83;;
47329;SDS011;33060;50.178;7.570;2023-02-26T04:40:58;6.60;;;2.57;;
47329;SDS011;33060;50.178;7.570;2023-02-26T04:43:25;3.97;;;2.47;;
47329;SDS011;33060;50.178;7.570;2023-02-26T04:46:11;5.73;;;2.50;;
47329;SDS011;33060;50.178;7.570;2023-02-26T04:48:38;4.93;;;2.50;;
47329;SDS011;33060;50.178;7.570;2023-02-26T04:51:05;4.43;;;2.73;;
47329;SDS011;33060;50.178;7.570;2023-02-26T04:53:32;5.17;;;3.13;;
47329;SDS011;33060;50.178;7.570;2023-02-26T04:55:59;5.97;;;2.43;;
47329;SDS011;33060;50.178;7.570;2023-02-26T04:58:26;4.13;;;2.50;;
47329;SDS011;33060;50.178;7.570;2023-02-26T05:00:55;3.90;;;2.33;;
47329;SDS011;33060;50.178;7.570;2023-02-26T05:03:22;4.17;;;2.53;;
47329;SDS011;33060;50.178;7.570;2023-02-26T05:05:49;3.97;;;2.63;;
47329;SDS011;33060;50.178;7.570;2023-02-26T05:08:16;3.33;;;2.20;;
47329;SDS011;33060;50.178;7.570;2023-02-26T05:10:43;3.30;;;2.30;;
47329;SDS011;33060;50.178;7.570;2023-02-26T05:13:11;3.87;;;2.30;;
47329;SDS011;33060;50.178;7.570;2023-02-26T05:15:37;4.73;;;2.27;;
47329;SDS011;33060;50.178;7.570;2023-02-26T05:18:04;5.37;;;2.53;;
47329;SDS011;33060;50.178;7.570;2023-02-26T05:20:31;4.57;;;2.73;;
47329;SDS011;33060;50.178;7.570;2023-02-26T05:22:57;3.07;;;2.13;;
47329;SDS011;33060;50.178;7.570;2023-02-26T05:25:24;3.70;;;2.10;;
47329;SDS011;33060;50.178;7.570;2023-02-26T05:27:50;4.63;;;2.30;;
47329;SDS011;33060;50.178;7.570;2023-02-26T05:30:17;3.00;;;2.33;;
47329;SDS011;33060;50.178;7.570;2023-02-26T05:32:44;3.17;;;2.10;;
47329;SDS011;33060;50.178;7.570;2023-02-26T05:35:11;3.47;;;2.30;;
47329;SDS011;33060;50.178;7.570;2023-02-26T05:37:38;4.00;;;2.10;;
47329;SDS011;33060;50.178;7.570;2023-02-26T05:40:05;3.00;;;2.00;;
47329;SDS011;33060;50.178;7.570;2023-02-26T05:42:37;3.60;;;2.33;;
47329;SDS011;33060;50.178;7.570;2023-02-26T05:45:05;4.30;;;2.33;;
47329;SDS011;33060;50.178;7.570;2023-02-26T05:47:32;4.07;;;2.40;;
47329;SDS011;33060;50.178;7.570;2023-02-26T05:50:00;3.73;;;1.90;;
47329;SDS011;33060;50.178;7.570;2023-02-26T05:52:27;4.00;;;2.40;;
47329;SDS011;33060;50.178;7.570;2023-02-26T05:54:54;4.57;;;2.27;;
47329;SDS011;33060;50.178;7.570;2023-02-26T05:57:22;3.20;;;2.53;;
47329;SDS011;33060;50.178;7.570;2023-02-26T05:59:49;3.40;;;2.50;;
47329;SDS011;33060;50.178;7.570;2023-02-26T06:02:16;4.67;;;2.53;;
47329;SDS011;33060;50.178;7.570;2023-02-26T06:04:43;4.30;;;2.37;;
47329;SDS011;33060;50.178;7.570;2023-02-26T06:07:10;3.43;;;2.53;;
47329;SDS011;33060;50.178;7.570;2023-02-26T06:09:37;3.33;;;2.40;;
47329;SDS011;33060;50.178;7.570;2023-02-26T06:12:04;5.47;;;2.37;;
47329;SDS011;33060;50.178;7.570;2023-02-26T06:14:32;3.90;;;2.17;;
47329;SDS011;33060;50.178;7.570;2023-02-26T06:16:59;4.13;;;2.20;;
47329;SDS011;33060;50.178;7.570;2023-02-26T06:19:25;5.57;;;2.60;;
47329;SDS011;33060;50.178;7.570;2023-02-26T06:21:52;4.47;;;2.80;;
47329;SDS011;33060;50.178;7.570;2023-02-26T06:24:19;5.43;;;2.47;;
47329;SDS011;33060;50.178;7.570;2023-02-26T06:26:45;3.83;;;2.30;;
47329;SDS011;33060;50.178;7.570;2023-02-26T06:29:12;5.47;;;2.70;;
47329;SDS011;33060;50.178;7.570;2023-02-26T06:31:38;5.23;;;2.50;;
47329;SDS011;33060;50.178;7.570;2023-02-26T06:34:05;3.53;;;2.20;;
47329;SDS011;33060;50.178;7.570;2023-02-26T06:36:32;4.03;;;2.43;;
47329;SDS011;33060;50.178;7.570;2023-02-26T06:38:58;3.83;;;2.77;;
47329;SDS011;33060;50.178;7.570;2023-02-26T06:41:25;4.17;;;2.57;;
47329;SDS011;33060;50.178;7.570;2023-02-26T06:43:52;3.97;;;2.70;;
47329;SDS011;33060;50.178;7.570;2023-02-26T06:46:18;3.67;;;2.60;;
47329;SDS011;33060;50.178;7.570;2023-02-26T06:48:45;5.03;;;3.13;;
47329;SDS011;33060;50.178;7.570;2023-02-26T06:51:11;4.93;;;2.90;;
47329;SDS011;33060;50.178;7.570;2023-02-26T06:53:38;6.23;;;2.53;;
47329;SDS011;33060;50.178;7.570;2023-02-26T06:56:05;3.53;;;2.77;;
47329;SDS011;33060;50.178;7.570;2023-02-26T06:58:32;4.90;;;2.90;;
47329;SDS011;33060;50.178;7.570;2023-02-26T07:00:58;4.70;;;3.07;;
47329;SDS011;33060;50.178;7.570;2023-02-26T07:03:25;5.90;;;3.43;;
47329;SDS011;33060;50.178;7.570;2023-02-26T07:05:52;3.53;;;2.93;;
47329;SDS011;33060;50.178;7.570;2023-02-26T07:08:18;5.97;;;3.27;;
47329;SDS011;33060;50.178;7.570;2023-02-26T07:10:45;6.43;;;3.27;;
47329;SDS011;33060;50.178;7.570;2023-02-26T07:13:15;6.27;;;3.50;;
47329;SDS011;33060;50.178;7.570;2023-02-26T07:15:42;5.53;;;3.20;;
47329;SDS011;33060;50.178;7.570;2023-02-26T07:18:11;5.03;;;3.00;;
47329;SDS011;33060;50.178;7.570;2023-02-26T07:20:38;5.73;;;3.40;;
47329;SDS011;33060;50.178;7.570;2023-02-26T07:23:05;4.73;;;3.27;;
47329;SDS011;33060;50.178;7.570;2023-02-26T07:25:32;3.93;;;3.10;;
47329;SDS011;33060;50.178;7.570;2023-02-26T07:27:58;4.47;;;3.07;;
47329;SDS011;33060;50.178;7.570;2023-02-26T07:30:25;5.53;;;3.47;;
47329;SDS011;33060;50.178;7.570;2023-02-26T07:32:52;4.37;;;2.93;;
47329;SDS011;33060;50.178;7.570;2023-02-26T07:35:20;7.57;;;3.20;;
47329;SDS011;33060;50.178;7.570;2023-02-26T07:37:47;5.20;;;3.50;;
47329;SDS011;33060;50.178;7.570;2023-02-26T07:40:14;6.47;;;3.33;;
47329;SDS011;33060;50.178;7.570;2023-02-26T07:42:40;6.27;;;3.57;;
47329;SDS011;33060;50.178;7.570;2023-02-26T07:45:07;5.13;;;3.20;;
47329;SDS011;33060;50.178;7.570;2023-02-26T07:47:34;6.40;;;3.27;;
47329;SDS011;33060;50.178;7.570;2023-02-26T07:50:01;4.27;;;3.30;;
47329;SDS011;33060;50.178;7.570;2023-02-26T07:52:28;7.43;;;3.23;;
47329;SDS011;33060;50.178;7.570;2023-02-26T07:54:55;6.70;;;3.37;;
47329;SDS011;33060;50.178;7.570;2023-02-26T07:57:21;6.40;;;3.17;;
47329;SDS011;33060;50.178;7.570;2023-02-26T07:59:48;5.70;;;3.13;;
47329;SDS011;33060;50.178;7.570;2023-02-26T08:02:14;5.00;;;3.00;;
47329;SDS011;33060;50.178;7.570;2023-02-26T08:04:42;6.73;;;3.13;;
47329;SDS011;33060;50.178;7.570;2023-02-26T08:07:09;5.27;;;3.10;;
47329;SDS011;33060;50.178;7.570;2023-02-26T08:09:35;5.17;;;3.10;;
47329;SDS011;33060;50.178;7.570;2023-02-26T08:12:02;5.43;;;3.07;;
47329;SDS011;33060;50.178;7.570;2023-02-26T08:14:29;6.50;;;3.40;;
47329;SDS011;33060;50.178;7.570;2023-02-26T08:16:56;4.67;;;3.10;;
47329;SDS011;33060;50.178;7.570;2023-02-26T08:19:23;5.23;;;3.23;;
47329;SDS011;33060;50.178;7.570;2023-02-26T08:21:50;4.43;;;3.20;;
47329;SDS011;33060;50.178;7.570;2023-02-26T08:24:17;6.40;;;2.93;;
47329;SDS011;33060;50.178;7.570;2023-02-26T08:26:43;4.87;;;2.60;;
47329;SDS011;33060;50.178;7.570;2023-02-26T08:29:11;4.23;;;2.93;;
47329;SDS011;33060;50.178;7.570;2023-02-26T08:31:38;4.50;;;2.63;;
47329;SDS011;33060;50.178;7.570;2023-02-26T08:34:05;4.27;;;2.20;;
47329;SDS011;33060;50.178;7.570;2023-02-26T08:36:32;4.07;;;2.20;;
47329;SDS011;33060;50.178;7.570;2023-02-26T08:38:59;5.60;;;2.50;;
47329;SDS011;33060;50.178;7.570;2023-02-26T08:41:25;5.17;;;3.07;;
47329;SDS011;33060;50.178;7.570;2023-02-26T08:43:55;2.93;;;2.30;;
47329;SDS011;33060;50.178;7.570;2023-02-26T08:46:21;6.67;;;2.20;;
47329;SDS011;33060;50.178;7.570;2023-02-26T08:48:48;3.90;;;2.60;;
47329;SDS011;33060;50.178;7.570;2023-02-26T08:51:15;5.07;;;2.40;;
47329;SDS011;33060;50.178;7.570;2023-02-26T08:53:41;3.33;;;2.10;;
47329;SDS011;33060;50.178;7.570;2023-02-26T08:56:10;4.13;;;2.27;;
47329;SDS011;33060;50.178;7.570;2023-02-26T08:58:37;3.10;;;1.93;;
47329;SDS011;33060;50.178;7.570;2023-02-26T09:01:04;4.87;;;2.40;;
47329;SDS011;33060;50.178;7.570;2023-02-26T09:03:31;3.67;;;2.00;;
47329;SDS011;33060;50.178;7.570;2023-02-26T09:05:57;4.30;;;2.00;;
47329;SDS011;33060;50.178;7.570;2023-02-26T09:08:24;3.17;;;1.93;;
47329;SDS011;33060;50.178;7.570;2023-02-26T09:10:51;3.07;;;1.70;;
47329;SDS011;33060;50.178;7.570;2023-02-26T09:13:17;2.43;;;1.60;;
47329;SDS011;33060;50.178;7.570;2023-02-26T09:15:44;3.17;;;1.70;;
47329;SDS011;33060;50.178;7.570;2023-02-26T09:18:11;2.10;;;1.40;;
47329;SDS011;33060;50.178;7.570;2023-02-26T09:20:41;1.83;;;1.40;;
47329;SDS011;33060;50.178;7.570;2023-02-26T09:23:09;2.80;;;1.67;;
47329;SDS011;33060;50.178;7.570;2023-02-26T09:25:36;2.23;;;1.23;;
47329;SDS011;33060;50.178;7.570;2023-02-26T09:28:03;2.33;;;1.40;;
47329;SDS011;33060;50.178;7.570;2023-02-26T09:30:31;2.33;;;1.27;;
47329;SDS011;33060;50.178;7.570;2023-02-26T09:32:57;2.20;;;1.30;;
47329;SDS011;33060;50.178;7.570;2023-02-26T09:35:24;1.83;;;1.10;;
47329;SDS011;33060;50.178;7.570;2023-02-26T09:37:51;2.97;;;1.20;;
47329;SDS011;33060;50.178;7.570;2023-02-26T09:42:56;2.00;;;1.00;;
47329;SDS011;33060;50.178;7.570;2023-02-26T09:45:35;3.20;;;1.30;;
47329;SDS011;33060;50.178;7.570;2023-02-26T09:48:04;2.67;;;1.00;;
47329;SDS011;33060;50.178;7.570;2023-02-26T09:50:45;2.43;;;1.00;;
47329;SDS011;33060;50.178;7.570;2023-02-26T09:53:20;1.87;;;0.77;;
47329;SDS011;33060;50.178;7.570;2023-02-26T09:55:50;2.37;;;1.13;;
47329;SDS011;33060;50.178;7.570;2023-02-26T09:58:35;1.47;;;1.10;;
47329;SDS011;33060;50.178;7.570;2023-02-26T10:01:06;2.20;;;1.00;;
47329;SDS011;33060;50.178;7.570;2023-02-26T10:03:49;3.07;;;0.90;;
47329;SDS011;33060;50.178;7.570;2023-02-26T10:12:46;1.83;;;0.90;;
47329;SDS011;33060;50.178;7.570;2023-02-26T10:21:00;1.57;;;1.10;;
47329;SDS011;33060;50.178;7.570;2023-02-26T10:23:36;2.60;;;0.97;;
47329;SDS011;33060;50.178;7.570;2023-02-26T10:26:13;0.73;;;0.70;;
47329;SDS011;33060;50.178;7.570;2023-02-26T10:40:03;0.80;;;0.63;;
47329;SDS011;33060;50.178;7.570;2023-02-26T10:42:42;1.40;;;0.90;;
47329;SDS011;33060;50.178;7.570;2023-02-26T10:48:07;1.30;;;0.80;;
47329;SDS011;33060;50.178;7.570;2023-02-26T10:50:43;0.87;;;0.70;;
47329;SDS011;33060;50.178;7.570;2023-02-26T10:53:14;2.33;;;0.80;;
47329;SDS011;33060;50.178;7.570;2023-02-26T10:55:43;0.93;;;0.70;;
47329;SDS011;33060;50.178;7.570;2023-02-26T10:58:14;1.97;;;0.87;;
47329;SDS011;33060;50.178;7.570;2023-02-26T11:00:47;1.30;;;0.90;;
47329;SDS011;33060;50.178;7.570;2023-02-26T11:03:41;1.73;;;0.93;;
47329;SDS011;33060;50.178;7.570;2023-02-26T11:06:07;1.90;;;0.73;;
47329;SDS011;33060;50.178;7.570;2023-02-26T11:08:39;1.33;;;0.70;;
47329;SDS011;33060;50.178;7.570;2023-02-26T11:11:08;1.00;;;0.70;;
47329;SDS011;33060;50.178;7.570;2023-02-26T11:13:36;0.87;;;0.70;;
47329;SDS011;33060;50.178;7.570;2023-02-26T11:16:05;1.00;;;0.60;;
47329;SDS011;33060;50.178;7.570;2023-02-26T11:18:45;1.67;;;0.73;;
47329;SDS011;33060;50.178;7.570;2023-02-26T11:21:21;2.47;;;0.90;;
47329;SDS011;33060;50.178;7.570;2023-02-26T11:23:56;0.80;;;0.70;;
47329;SDS011;33060;50.178;7.570;2023-02-26T11:26:30;2.83;;;0.97;;
47329;SDS011;33060;50.178;7.570;2023-02-26T11:28:59;1.60;;;0.80;;
47329;SDS011;33060;50.178;7.570;2023-02-26T11:31:26;1.60;;;0.90;;
47329;SDS011;33060;50.178;7.570;2023-02-26T11:33:59;1.33;;;0.73;;
47329;SDS011;33060;50.178;7.570;2023-02-26T11:36:28;1.17;;;0.70;;
47329;SDS011;33060;50.178;7.570;2023-02-26T11:39:02;0.80;;;0.60;;
47329;SDS011;33060;50.178;7.570;2023-02-26T11:41:38;3.83;;;0.67;;
47329;SDS011;33060;50.178;7.570;2023-02-26T11:44:07;0.70;;;0.50;;
47329;SDS011;33060;50.178;7.570;2023-02-26T11:46:41;1.17;;;0.63;;
47329;SDS011;33060;50.178;7.570;2023-02-26T11:49:13;1.20;;;0.70;;
47329;SDS011;33060;50.178;7.570;2023-02-26T11:51:44;0.77;;;0.70;;
47329;SDS011;33060;50.178;7.570;2023-02-26T11:54:19;1.20;;;0.60;;
47329;SDS011;33060;50.178;7.570;2023-02-26T11:56:48;1.20;;;0.80;;
47329;SDS011;33060;50.178;7.570;2023-02-26T11:59:22;1.37;;;0.73;;
47329;SDS011;33060;50.178;7.570;2023-02-26T12:01:50;1.13;;;0.60;;
47329;SDS011;33060;50.178;7.570;2023-02-26T12:04:22;1.67;;;0.70;;
47329;SDS011;33060;50.178;7.570;2023-02-26T12:06:54;0.97;;;0.70;;
47329;SDS011;33060;50.178;7.570;2023-02-26T12:09:21;2.17;;;0.80;;
47329;SDS011;33060;50.178;7.570;2023-02-26T12:14:36;3.03;;;1.00;;
47329;SDS011;33060;50.178;7.570;2023-02-26T12:20:33;1.37;;;0.80;;
47329;SDS011;33060;50.178;7.570;2023-02-26T12:25:55;2.37;;;0.60;;
47329;SDS011;33060;50.178;7.570;2023-02-26T12:42:16;1.40;;;0.77;;
47329;SDS011;33060;50.178;7.570;2023-02-26T12:51:08;2.00;;;0.80;;
47329;SDS011;33060;50.178;7.570;2023-02-26T12:59:04;1.10;;;0.70;;
47329;SDS011;33060;50.178;7.570;2023-02-26T13:10:12;1.37;;;0.90;;
47329;SDS011;33060;50.178;7.570;2023-02-26T13:12:49;1.73;;;0.70;;
47329;SDS011;33060;50.178;7.570;2023-02-26T13:15:38;1.73;;;0.90;;
47329;SDS011;33060;50.178;7.570;2023-02-26T13:20:53;3.07;;;1.10;;
47329;SDS011;33060;50.178;7.570;2023-02-26T13:26:17;2.00;;;1.10;;
47329;SDS011;33060;50.178;7.570;2023-02-26T13:29:01;1.20;;;0.80;;
47329;SDS011;33060;50.178;7.570;2023-02-26T13:31:31;3.47;;;1.10;;
47329;SDS011;33060;50.178;7.570;2023-02-26T13:34:03;1.17;;;0.60;;
47329;SDS011;33060;50.178;7.570;2023-02-26T13:36:36;2.83;;;0.80;;
47329;SDS011;33060;50.178;7.570;2023-02-26T13:41:49;1.03;;;0.80;;
47329;SDS011;33060;50.178;7.570;2023-02-26T13:50:21;0.90;;;0.70;;
47329;SDS011;33060;50.178;7.570;2023-02-26T13:52:49;2.67;;;0.97;;
47329;SDS011;33060;50.178;7.570;2023-02-26T13:55:36;1.43;;;0.80;;
47329;SDS011;33060;50.178;7.570;2023-02-26T14:03:36;1.77;;;0.90;;
47329;SDS011;33060;50.178;7.570;2023-02-26T14:08:55;2.67;;;0.80;;
47329;SDS011;33060;50.178;7.570;2023-02-26T14:11:43;1.30;;;1.00;;
47329;SDS011;33060;50.178;7.570;2023-02-26T14:16:54;2.50;;;0.90;;
47329;SDS011;33060;50.178;7.570;2023-02-26T14:24:38;1.33;;;0.90;;
47329;SDS011;33060;50.178;7.570;2023-02-26T14:32:33;1.90;;;1.20;;
47329;SDS011;33060;50.178;7.570;2023-02-26T14:35:11;2.57;;;1.10;;
47329;SDS011;33060;50.178;7.570;2023-02-26T14:37:42;3.00;;;1.17;;
47329;SDS011;33060;50.178;7.570;2023-02-26T14:42:51;3.40;;;0.90;;
47329;SDS011;33060;50.178;7.570;2023-02-26T14:47:53;2.20;;;0.90;;
47329;SDS011;33060;50.178;7.570;2023-02-26T14:50:21;1.37;;;0.97;;
47329;SDS011;33060;50.178;7.570;2023-02-26T14:52:58;1.43;;;0.80;;
47329;SDS011;33060;50.178;7.570;2023-02-26T14:58:25;2.37;;;1.60;;
47329;SDS011;33060;50.178;7.570;2023-02-26T15:04:04;1.90;;;0.90;;
47329;SDS011;33060;50.178;7.570;2023-02-26T15:09:33;1.37;;;0.80;;
47329;SDS011;33060;50.178;7.570;2023-02-26T15:23:47;1.50;;;0.70;;
47329;SDS011;33060;50.178;7.570;2023-02-26T15:26:20;1.83;;;0.90;;
47329;SDS011;33060;50.178;7.570;2023-02-26T15:28:50;1.43;;;0.93;;
47329;SDS011;33060;50.178;7.570;2023-02-26T15:31:20;1.90;;;0.70;;
47329;SDS011;33060;50.178;7.570;2023-02-26T15:33:59;1.70;;;0.90;;
47329;SDS011;33060;50.178;7.570;2023-02-26T15:36:27;1.63;;;0.90;;
47329;SDS011;33060;50.178;7.570;2023-02-26T15:38:56;1.83;;;0.70;;
47329;SDS011;33060;50.178;7.570;2023-02-26T15:41:26;1.67;;;0.80;;
47329;SDS011;33060;50.178;7.570;2023-02-26T15:43:56;1.37;;;0.70;;
47329;SDS011;33060;50.178;7.570;2023-02-26T15:46:27;0.90;;;0.80;;
47329;SDS011;33060;50.178;7.570;2023-02-26T15:48:59;1.57;;;0.90;;
47329;SDS011;33060;50.178;7.570;2023-02-26T15:51:30;1.37;;;0.77;;
47329;SDS011;33060;50.178;7.570;2023-02-26T15:53:58;2.37;;;1.40;;
47329;SDS011;33060;50.178;7.570;2023-02-26T15:56:29;2.10;;;0.80;;
47329;SDS011;33060;50.178;7.570;2023-02-26T15:59:10;1.37;;;0.90;;
47329;SDS011;33060;50.178;7.570;2023-02-26T16:01:42;2.13;;;1.00;;
47329;SDS011;33060;50.178;7.570;2023-02-26T16:04:13;1.00;;;0.80;;
47329;SDS011;33060;50.178;7.570;2023-02-26T16:06:43;2.00;;;0.73;;
47329;SDS011;33060;50.178;7.570;2023-02-26T16:09:23;1.87;;;0.80;;
47329;SDS011;33060;50.178;7.570;2023-02-26T16:12:02;1.37;;;0.80;;
47329;SDS011;33060;50.178;7.570;2023-02-26T16:14:34;1.37;;;0.70;;
47329;SDS011;33060;50.178;7.570;2023-02-26T16:17:04;1.20;;;0.90;;
47329;SDS011;33060;50.178;7.570;2023-02-26T16:19:34;3.10;;;0.90;;
47329;SDS011;33060;50.178;7.570;2023-02-26T16:22:33;1.40;;;0.80;;
47329;SDS011;33060;50.178;7.570;2023-02-26T16:25:06;2.73;;;0.80;;
47329;SDS011;33060;50.178;7.570;2023-02-26T16:27:43;1.33;;;0.80;;
47329;SDS011;33060;50.178;7.570;2023-02-26T16:30:14;2.50;;;0.90;;
47329;SDS011;33060;50.178;7.570;2023-02-26T16:32:44;1.80;;;0.70;;
47329;SDS011;33060;50.178;7.570;2023-02-26T16:35:21;1.93;;;0.80;;
47329;SDS011;33060;50.178;7.570;2023-02-26T16:37:53;0.80;;;0.67;;
47329;SDS011;33060;50.178;7.570;2023-02-26T16:40:27;2.93;;;0.70;;
47329;SDS011;33060;50.178;7.570;2023-02-26T16:43:01;1.63;;;0.80;;
47329;SDS011;33060;50.178;7.570;2023-02-26T16:48:04;1.40;;;0.60;;
47329;SDS011;33060;50.178;7.570;2023-02-26T16:50:38;0.93;;;0.70;;
47329;SDS011;33060;50.178;7.570;2023-02-26T16:53:10;1.50;;;0.70;;
47329;SDS011;33060;50.178;7.570;2023-02-26T16:55:41;1.30;;;0.70;;
47329;SDS011;33060;50.178;7.570;2023-02-26T16:58:15;1.53;;;0.90;;
47329;SDS011;33060;50.178;7.570;2023-02-26T17:00:43;4.40;;;1.10;;
47329;SDS011;33060;50.178;7.570;2023-02-26T17:03:13;2.00;;;0.80;;
47329;SDS011;33060;50.178;7.570;2023-02-26T17:06:05;1.37;;;0.70;;
47329;SDS011;33060;50.178;7.570;2023-02-26T17:08:50;1.53;;;0.80;;
47329;SDS011;33060;50.178;7.570;2023-02-26T17:11:34;1.23;;;0.70;;
47329;SDS011;33060;50.178;7.570;2023-02-26T17:14:19;1.60;;;0.90;;
47329;SDS011;33060;50.178;7.570;2023-02-26T17:16:49;1.47;;;0.70;;
47329;SDS011;33060;50.178;7.570;2023-02-26T17:19:17;1.63;;;0.70;;
47329;SDS011;33060;50.178;7.570;2023-02-26T17:21:45;1.43;;;0.80;;
47329;SDS011;33060;50.178;7.570;2023-02-26T17:24:15;1.53;;;0.80;;
47329;SDS011;33060;50.178;7.570;2023-02-26T17:26:45;1.70;;;0.87;;
47329;SDS011;33060;50.178;7.570;2023-02-26T17:29:20;1.20;;;0.80;;
47329;SDS011;33060;50.178;7.570;2023-02-26T17:31:49;2.07;;;0.80;;
47329;SDS011;33060;50.178;7.570;2023-02-26T17:34:17;1.77;;;0.67;;
47329;SDS011;33060;50.178;7.570;2023-02-26T17:36:45;1.83;;;0.80;;
47329;SDS011;33060;50.178;7.570;2023-02-26T17:39:12;1.60;;;0.73;;
47329;SDS011;33060;50.178;7.570;2023-02-26T17:41:41;1.57;;;0.80;;
47329;SDS011;33060;50.178;7.570;2023-02-26T17:44:08;2.40;;;0.80;;
47329;SDS011;33060;50.178;7.570;2023-02-26T17:46:35;2.90;;;0.73;;
47329;SDS011;33060;50.178;7.570;2023-02-26T17:49:02;1.57;;;0.83;;
47329;SDS011;33060;50.178;7.570;2023-02-26T17:51:29;2.27;;;0.97;;
47329;SDS011;33060;50.178;7.570;2023-02-26T17:53:55;2.50;;;0.87;;
47329;SDS011;33060;50.178;7.570;2023-02-26T17:56:26;2.00;;;1.00;;
47329;SDS011;33060;50.178;7.570;2023-02-26T17:58:55;1.33;;;0.80;;
47329;SDS011;33060;50.178;7.570;2023-02-26T18:01:23;3.50;;;0.80;;
47329;SDS011;33060;50.178;7.570;2023-02-26T18:03:53;1.50;;;0.60;;
47329;SDS011;33060;50.178;7.570;2023-02-26T18:06:21;2.20;;;0.73;;
47329;SDS011;33060;50.178;7.570;2023-02-26T18:08:49;2.13;;;0.80;;
47329;SDS011;33060;50.178;7.570;2023-02-26T18:11:16;1.93;;;1.00;;
47329;SDS011;33060;50.178;7.570;2023-02-26T18:13:43;1.10;;;0.80;;
47329;SDS011;33060;50.178;7.570;2023-02-26T18:16:19;2.77;;;0.80;;
47329;SDS011;33060;50.178;7.570;2023-02-26T18:18:48;2.13;;;1.20;;
47329;SDS011;33060;50.178;7.570;2023-02-26T18:21:14;1.63;;;0.80;;
47329;SDS011;33060;50.178;7.570;2023-02-26T18:23:41;1.83;;;0.90;;